Time;durP1;ratioP1;P1;durP2;ratioP2;P2;SDS_P1;SDS_P2;PMS_P1;PMS_P2;Temp;Humidity;BMP_temperature;BMP_pressure;BME280_temperature;BME280_humidity;BME280_pressure;Samples;Min_cycle;Max_cycle;Signal;HPM_P1;HPM_P2
2021/03/05 00:01:29;;;;;;;16.77;8.37;;;;;;;4.58;55.35;95351.47;1780160;81;21141;-64
2021/03/05 00:03:57;;;;;;;17.60;8.53;;;;;;;4.54;57.49;95361.50;1779817;81;21136;-65
2021/03/05 00:06:25;;;;;;;17.80;8.40;;;;;;;4.43;56.68;95362.77;1779759;81;21121;-65
2021/03/05 00:08:53;;;;;;;21.17;9.20;;;;;;;4.30;57.56;95360.58;1779904;81;21101;-65
2021/03/05 00:11:21;;;;;;;14.60;8.33;;;;;;;4.21;57.25;95367.52;1780021;80;21536;-64
2021/03/05 00:13:49;;;;;;;19.70;8.27;;;;;;;4.10;58.24;95365.76;1780069;81;21125;-64
2021/03/05 00:16:18;;;;;;;13.73;6.60;;;;;;;4.00;58.37;95374.44;1780226;81;21156;-64
2021/03/05 00:18:46;;;;;;;16.30;7.57;;;;;;;3.92;60.00;95372.23;1779909;80;21121;-64
2021/03/05 00:21:14;;;;;;;18.77;8.60;;;;;;;3.85;59.05;95368.72;1779719;80;21575;-65
2021/03/05 00:23:41;;;;;;;15.87;7.03;;;;;;;3.82;58.72;95366.11;1779819;81;21141;-65
2021/03/05 00:26:09;;;;;;;16.83;7.27;;;;;;;3.90;60.00;95370.05;1779827;80;21121;-65
2021/03/05 00:28:37;;;;;;;22.10;8.20;;;;;;;3.88;59.62;95375.28;1780032;81;21125;-65
2021/03/05 00:31:05;;;;;;;9.07;4.80;;;;;;;3.80;60.40;95365.22;1780115;81;21117;-65
2021/03/05 00:33:34;;;;;;;14.43;6.50;;;;;;;3.72;63.08;95369.55;1779748;81;21619;-65
2021/03/05 00:36:04;;;;;;;14.57;6.17;;;;;;;3.67;62.48;95368.22;1779844;81;21137;-65
2021/03/05 00:38:32;;;;;;;13.30;5.73;;;;;;;3.62;61.71;95366.46;1779817;80;21093;-65
2021/03/05 00:41:00;;;;;;;17.27;7.27;;;;;;;3.58;62.65;95364.28;1779740;81;21132;-65
2021/03/05 00:43:29;;;;;;;18.47;8.40;;;;;;;3.49;63.07;95364.67;1779518;80;21129;-64
2021/03/05 00:45:58;;;;;;;19.73;7.63;;;;;;;3.49;62.14;95362.06;1779382;81;21279;-64
2021/03/05 00:48:26;;;;;;;18.23;8.00;;;;;;;3.50;62.79;95369.88;1779377;81;21124;-65
2021/03/05 00:50:55;;;;;;;15.90;7.30;;;;;;;3.48;62.61;95366.41;1779317;81;21532;-65
2021/03/05 00:53:23;;;;;;;18.70;8.13;;;;;;;3.47;62.67;95359.44;1779513;80;21132;-65
2021/03/05 00:55:51;;;;;;;18.17;8.57;;;;;;;3.47;62.48;95359.00;1779189;81;21263;-65
2021/03/05 00:58:20;;;;;;;16.27;8.60;;;;;;;3.49;62.14;95356.41;1779221;81;21271;-64
2021/03/05 01:00:49;;;;;;;17.47;8.93;;;;;;;3.50;61.93;95355.97;1779421;81;21270;-65
2021/03/05 01:03:17;;;;;;;24.97;12.23;;;;;;;3.49;62.28;95352.49;1778807;81;21117;-64
2021/03/05 01:06:31;;;;;;;18.63;10.20;;;;;;;3.58;61.33;95349.05;1779555;81;21243;-64
2021/03/05 01:09:00;;;;;;;15.87;5.93;;;;;;;3.78;61.30;95343.50;1779089;81;21124;-65
2021/03/05 01:11:32;;;;;;;20.80;8.70;;;;;;;3.68;63.60;95342.59;1779524;81;21303;-65
2021/03/05 01:14:00;;;;;;;12.83;4.57;;;;;;;3.45;63.28;95343.80;1779325;81;21268;-64
2021/03/05 01:16:29;;;;;;;13.23;6.17;;;;;;;3.19;66.01;95339.73;1779059;81;21101;-64
2021/03/05 01:18:59;;;;;;;16.63;5.87;;;;;;;3.12;64.50;95337.08;1779210;81;21701;-64
2021/03/05 01:21:28;;;;;;;12.97;6.70;;;;;;;3.10;64.65;95330.57;1757546;81;21124;-64
2021/03/05 01:23:59;;;;;;;11.97;6.70;;;;;;;3.12;64.45;95326.65;1779330;81;21089;-64
2021/03/05 01:26:29;;;;;;;13.77;7.17;;;;;;;3.10;64.80;95327.97;1779390;81;21252;-65
2021/03/05 01:28:56;;;;;;;19.80;8.17;;;;;;;3.04;65.36;95327.47;1779530;81;21120;-64
2021/03/05 01:31:26;;;;;;;20.97;8.90;;;;;;;3.09;66.55;95331.41;1779448;81;21153;-64
2021/03/05 01:33:54;;;;;;;19.60;9.03;;;;;;;3.16;65.74;95333.64;1779128;81;21259;-65
2021/03/05 01:36:24;;;;;;;18.83;6.87;;;;;;;3.20;65.87;95333.67;1777656;80;21516;-65
2021/03/05 01:38:52;;;;;;;22.10;8.13;;;;;;;3.15;66.47;95334.48;1779264;81;21255;-65
2021/03/05 01:41:20;;;;;;;24.27;8.77;;;;;;;3.13;66.89;95339.70;1779596;81;21120;-65
2021/03/05 01:43:50;;;;;;;22.20;9.50;;;;;;;3.16;67.13;95342.77;1779209;80;21121;-64
2021/03/05 01:46:21;;;;;;;18.60;6.47;;;;;;;3.21;66.68;95341.92;1779476;81;21144;-65
2021/03/05 01:48:50;;;;;;;22.13;8.27;;;;;;;3.27;67.15;95338.91;1779174;81;21267;-65
2021/03/05 01:51:22;;;;;;;10.60;3.73;;;;;;;3.29;66.50;95333.27;1779581;81;21124;-64
2021/03/05 01:53:50;;;;;;;15.17;6.70;;;;;;;3.32;67.35;95332.84;1779230;80;21283;-64
2021/03/05 01:56:43;;;;;;;40.50;11.83;;;;;;;3.25;66.95;95338.88;1779310;81;21295;-65
2021/03/05 01:59:19;;;;;;;53.20;21.37;;;;;;;3.27;67.22;95332.38;1779061;81;21125;-64
2021/03/05 02:01:47;;;;;;;32.43;14.77;;;;;;;3.17;66.41;95337.97;1779422;81;21267;-65
2021/03/05 02:04:16;;;;;;;36.90;19.10;;;;;;;3.11;66.37;95336.21;1779097;81;21130;-65
2021/03/05 02:06:46;;;;;;;36.93;16.93;;;;;;;3.06;65.77;95331.41;1776325;80;21705;-64
2021/03/05 02:09:17;;;;;;;20.27;8.03;;;;;;;3.05;65.82;95337.49;1779237;81;21563;-65
2021/03/05 02:11:45;;;;;;;18.60;6.33;;;;;;;3.06;66.41;95337.05;1779416;81;21587;-64
2021/03/05 02:14:14;;;;;;;14.27;5.50;;;;;;;3.02;67.83;95327.92;1779656;81;21556;-65
2021/03/05 02:16:50;;;;;;;12.47;5.53;;;;;;;2.98;68.34;95328.75;1779202;81;21275;-64
2021/03/05 02:19:30;;;;;;;19.37;9.63;;;;;;;2.95;67.80;95322.66;1774391;81;21152;-64
2021/03/05 02:22:24;;;;;;;12.43;4.50;;;;;;;2.99;68.07;95321.36;1779562;80;21145;-64
2021/03/05 02:25:06;;;;;;;16.93;7.80;;;;;;;3.04;68.05;95324.00;1779144;81;21108;-66
2021/03/05 02:28:02;;;;;;;17.43;7.53;;;;;;;2.99;68.84;95323.97;1762774;80;21164;-66
2021/03/05 02:31:14;;;;;;;28.37;10.20;;;;;;;2.93;68.97;95323.08;1779107;80;21618;-67
2021/03/05 02:33:57;;;;;;;30.87;10.93;;;;;;;2.89;68.43;95323.91;1779242;81;21097;-67
2021/03/05 02:36:36;;;;;;;11.90;4.60;;;;;;;2.80;68.45;95324.73;1779053;80;21098;-66
2021/03/05 02:39:12;;;;;;;35.07;16.03;;;;;;;2.78;70.02;95329.05;1779617;81;21290;-66
2021/03/05 02:41:43;;;;;;;50.03;21.53;;;;;;;2.73;69.97;95325.55;1779241;81;21260;-64
2021/03/05 02:44:17;;;;;;;38.80;18.03;;;;;;;2.67;69.81;95328.09;1779569;80;21717;-64
2021/03/05 02:46:44;;;;;;;34.80;13.08;;;;;;;2.64;69.54;95321.56;1780217;81;21093;-65
2021/03/05 02:49:19;;;;;;;21.20;9.50;;;;;;;2.59;69.57;95324.98;1779642;81;21129;-64
2021/03/05 02:51:48;;;;;;;14.07;6.57;;;;;;;2.60;69.23;95329.36;1751962;81;21113;-64
2021/03/05 02:54:17;;;;;;;15.33;6.13;;;;;;;2.67;69.10;95326.78;1780141;80;21136;-64
2021/03/05 02:56:47;;;;;;;9.27;4.13;;;;;;;2.74;69.46;95328.14;1780158;81;21574;-64
2021/03/05 02:59:17;;;;;;;27.40;10.33;;;;;;;2.87;70.31;95327.79;1779853;80;21133;-64
2021/03/05 03:01:49;;;;;;;20.93;6.97;;;;;;;2.99;69.43;95331.78;1780008;81;21128;-64
2021/03/05 03:04:20;;;;;;;18.12;8.15;;;;;;;3.15;69.12;95337.09;1779928;81;21125;-65
2021/03/05 03:06:49;;;;;;;45.57;21.07;;;;;;;3.17;69.37;95332.77;1780281;81;21124;-64
2021/03/05 03:09:19;;;;;;;17.57;7.57;;;;;;;3.11;69.15;95337.52;1779795;80;21583;-65
2021/03/05 03:11:49;;;;;;;17.83;7.53;;;;;;;3.07;68.94;95335.74;1779915;80;21133;-65
2021/03/05 03:14:17;;;;;;;10.97;4.50;;;;;;;3.13;69.45;95336.23;1780185;81;21555;-65
2021/03/05 03:16:48;;;;;;;20.03;8.67;;;;;;;3.13;70.54;95332.32;1780006;81;21528;-65
2021/03/05 03:19:20;;;;;;;27.77;15.17;;;;;;;3.12;71.28;95332.73;1779833;81;21161;-65
2021/03/05 03:21:48;;;;;;;29.43;14.90;;;;;;;3.08;70.92;95328.81;1779980;81;21571;-64
2021/03/05 03:24:19;;;;;;;14.47;5.17;;;;;;;3.11;70.54;95323.18;1776832;81;21097;-65
2021/03/05 03:26:47;;;;;;;20.13;6.60;;;;;;;3.11;70.56;95324.48;1779932;81;21152;-64
2021/03/05 03:29:17;;;;;;;16.83;5.20;;;;;;;3.04;70.22;95318.34;1779768;81;21129;-64
2021/03/05 03:31:46;;;;;;;16.50;6.40;;;;;;;3.01;70.59;95315.73;1779869;80;21116;-65
2021/03/05 03:34:15;;;;;;;13.10;4.73;;;;;;;3.06;70.95;95313.59;1779824;80;21106;-65
2021/03/05 03:36:43;;;;;;;37.23;13.83;;;;;;;3.10;71.12;95307.52;1779844;81;21579;-65
2021/03/05 03:39:12;;;;;;;21.93;8.10;;;;;;;3.05;71.19;95302.30;1780052;81;21136;-64
2021/03/05 03:41:41;;;;;;;26.47;7.43;;;;;;;3.06;70.80;95307.08;1780051;81;21619;-64
2021/03/05 03:44:12;;;;;;;15.80;6.13;;;;;;;3.03;71.52;95307.94;1780281;80;21153;-65
2021/03/05 03:46:49;;;;;;;31.00;14.33;;;;;;;3.00;71.25;95299.66;1779853;81;21129;-64
2021/03/05 03:49:29;;;;;;;32.07;12.50;;;;;;;2.98;71.37;95298.78;1779947;81;21120;-64
2021/03/05 03:52:08;;;;;;;37.23;15.77;;;;;;;2.94;71.48;95290.48;1780055;80;21536;-65
2021/03/05 03:54:38;;;;;;;55.10;22.30;;;;;;;2.88;71.33;95295.68;1779855;80;21094;-64
2021/03/05 03:57:11;;;;;;;;;;;;;;;2.85;71.75;95294.77;1782718;81;21551;-64
2021/03/05 03:59:40;;;;;;;35.13;14.70;;;;;;;2.74;72.77;95290.80;1780090;81;20404;-64
2021/03/05 04:02:09;;;;;;;30.13;13.40;;;;;;;2.80;72.67;95292.16;1779859;80;21607;-64
2021/03/05 04:04:39;;;;;;;21.93;10.07;;;;;;;2.83;72.17;95287.41;1779841;80;21129;-64
2021/03/05 04:07:08;;;;;;;28.00;10.57;;;;;;;2.88;72.07;95292.21;1779825;80;21136;-65
2021/03/05 04:09:37;;;;;;;19.07;9.17;;;;;;;2.92;72.17;95292.64;1779888;80;21571;-65
2021/03/05 04:12:07;;;;;;;24.27;8.97;;;;;;;2.97;71.89;95290.53;1779744;81;21575;-64
2021/03/05 04:14:36;;;;;;;24.30;10.03;;;;;;;2.99;72.05;95291.39;1780124;80;21130;-65
2021/03/05 04:17:03;;;;;;;62.40;22.20;;;;;;;2.91;72.81;95292.22;1779998;81;21145;-64
2021/03/05 04:19:33;;;;;;;42.40;17.00;;;;;;;2.90;72.03;95295.67;1779881;81;21157;-64
2021/03/05 04:22:01;;;;;;;34.83;12.93;;;;;;;2.81;72.32;95296.50;1779937;80;21571;-64
2021/03/05 04:24:29;;;;;;;11.63;4.83;;;;;;;2.73;72.32;95293.84;1779837;80;21124;-64
2021/03/05 04:27:03;;;;;;;17.23;5.37;;;;;;;2.66;72.99;95288.58;1779890;81;21156;-64
2021/03/05 04:29:31;;;;;;;14.00;5.40;;;;;;;2.62;73.75;95292.02;1779153;81;21141;-64
2021/03/05 04:31:59;;;;;;;12.87;6.13;;;;;;;2.51;73.62;95303.23;1779848;81;21559;-64
2021/03/05 04:34:29;;;;;;;14.37;4.80;;;;;;;2.46;73.57;95297.55;1779895;80;21121;-65
2021/03/05 04:36:57;;;;;;;55.93;19.37;;;;;;;2.40;74.52;95293.17;1779880;81;21528;-65
2021/03/05 04:39:25;;;;;;;46.07;17.27;;;;;;;2.39;73.77;95294.02;1779950;81;21137;-65
2021/03/05 04:41:53;;;;;;;30.97;11.50;;;;;;;2.30;73.58;95298.73;1779861;81;21149;-65
2021/03/05 04:44:21;;;;;;;22.70;7.77;;;;;;;2.25;73.70;95301.73;1779761;80;21137;-65
2021/03/05 04:46:49;;;;;;;18.90;7.60;;;;;;;2.21;73.35;95301.24;1779154;81;21279;-65
2021/03/05 04:49:18;;;;;;;13.67;5.27;;;;;;;2.29;73.47;95300.01;1779195;81;21105;-65
2021/03/05 04:51:46;;;;;;;8.27;3.20;;;;;;;2.42;74.39;95296.67;1779651;81;21559;-65
2021/03/05 04:54:16;;;;;;;17.07;4.37;;;;;;;2.44;74.88;95284.50;1779358;81;21262;-65
2021/03/05 04:56:46;;;;;;;19.90;6.53;;;;;;;2.39;74.17;95287.50;1778389;80;21291;-65
2021/03/05 04:59:14;;;;;;;145.67;58.43;;;;;;;2.46;74.08;95289.73;1779154;81;21283;-64
2021/03/05 05:01:42;;;;;;;110.37;45.20;;;;;;;2.48;74.63;95298.00;1779459;81;21259;-65
2021/03/05 05:04:13;;;;;;;89.10;36.27;;;;;;;2.47;73.80;95301.88;1779471;81;21140;-65
2021/03/05 05:06:42;;;;;;;19.40;6.67;;;;;;;2.50;73.71;95298.89;1779360;81;21555;-65
2021/03/05 05:09:12;;;;;;;12.00;3.67;;;;;;;2.49;73.73;95301.03;1778179;80;21105;-65
2021/03/05 05:11:44;;;;;;;127.77;55.90;;;;;;;2.50;74.07;95299.33;1779305;81;21275;-65
2021/03/05 05:14:13;;;;;;;30.47;13.10;;;;;;;2.51;74.05;95304.53;1779313;81;21303;-65
2021/03/05 05:16:42;;;;;;;23.23;5.17;;;;;;;2.49;74.38;95311.45;1779338;81;21156;-65
2021/03/05 05:19:11;;;;;;;23.60;7.77;;;;;;;2.57;74.64;95311.11;1779201;81;21129;-65
2021/03/05 05:21:42;;;;;;;74.40;32.03;;;;;;;2.68;75.15;95305.10;1779134;81;21271;-65
2021/03/05 05:24:11;;;;;;;138.23;56.63;;;;;;;2.84;75.01;95308.23;1779436;81;21539;-65
2021/03/05 05:26:40;;;;;;;20.40;4.50;;;;;;;2.92;74.13;95306.55;1779515;81;21097;-65
2021/03/05 05:29:08;;;;;;;11.30;3.50;;;;;;;2.99;74.24;95300.51;1779239;81;21575;-65
2021/03/05 05:31:38;;;;;;;30.00;10.83;;;;;;;3.03;74.81;95307.50;1779221;81;21267;-64
2021/03/05 05:34:06;;;;;;;23.93;7.33;;;;;;;3.07;74.60;95301.86;1779396;81;21164;-65
2021/03/05 05:36:34;;;;;;;22.77;7.67;;;;;;;3.17;74.54;95304.08;1779331;81;21557;-65
2021/03/05 05:39:04;;;;;;;14.27;6.50;;;;;;;3.19;74.30;95302.36;1779376;81;21326;-65
2021/03/05 05:41:34;;;;;;;104.37;45.07;;;;;;;3.18;74.41;95297.59;1779420;81;21720;-65
2021/03/05 05:44:01;;;;;;;106.30;44.13;;;;;;;3.23;74.29;95301.53;1779039;80;21283;-64
2021/03/05 05:46:30;;;;;;;189.37;83.40;;;;;;;3.14;74.33;95306.68;1779520;81;21528;-65
2021/03/05 05:48:58;;;;;;;126.93;52.60;;;;;;;3.08;74.66;95306.22;1778994;81;21128;-65
2021/03/05 05:51:30;;;;;;;177.97;70.50;;;;;;;3.03;74.18;95310.54;1779429;81;21133;-65
2021/03/05 05:54:05;;;;;;;253.13;110.13;;;;;;;2.96;75.13;95307.45;1779399;81;21113;-65
2021/03/05 05:56:36;;;;;;;191.30;79.60;;;;;;;2.95;74.58;95312.23;1779262;81;21152;-65
2021/03/05 05:59:04;;;;;;;204.73;93.43;;;;;;;2.94;74.82;95307.87;1779558;81;21101;-64
2021/03/05 06:01:34;;;;;;;85.30;36.37;;;;;;;2.95;74.55;95316.15;1779371;80;21141;-72
2021/03/05 06:04:04;;;;;;;107.43;51.73;;;;;;;2.97;75.23;95314.39;1779124;81;21182;-72
2021/03/05 06:06:39;;;;;;;156.50;69.00;;;;;;;2.98;75.19;95311.81;1778630;80;21287;-71
2021/03/05 06:09:07;;;;;;;166.07;73.95;;;;;;;2.99;75.52;95312.67;1779562;81;21267;-70
2021/03/05 06:11:40;;;;;;;155.40;70.47;;;;;;;2.98;74.86;95316.16;1779475;81;21120;-80
2021/03/05 06:14:13;;;;;;;230.87;88.87;;;;;;;3.02;75.42;95306.17;1779686;80;21156;-76
2021/03/05 06:16:59;;;;;;;224.33;91.30;;;;;;;3.06;74.91;95307.95;1779685;80;21090;-72
2021/03/05 06:19:31;;;;;;;186.93;75.73;;;;;;;3.11;74.71;95302.32;1779223;81;21137;-74
2021/03/05 06:22:01;;;;;;;158.53;65.47;;;;;;;3.15;74.98;95301.48;1779355;81;21267;-72
2021/03/05 06:24:36;;;;;;;117.03;52.83;;;;;;;3.22;74.99;95294.55;1779435;81;21543;-78
2021/03/05 06:27:05;;;;;;;129.75;57.50;;;;;;;3.24;74.83;95301.52;1777965;80;21266;-74
2021/03/05 06:29:45;;;;;;;89.53;38.83;;;;;;;3.31;74.49;95298.52;1779374;81;21149;-76
2021/03/05 06:32:19;;;;;;;56.70;27.63;;;;;;;3.37;74.09;95294.62;1779517;81;21149;-72
2021/03/05 06:34:54;;;;;;;58.87;28.07;;;;;;;3.47;73.62;95296.39;1779288;80;21263;-75
2021/03/05 06:37:27;;;;;;;55.97;27.67;;;;;;;3.54;73.85;95299.05;1778244;80;21152;-80
2021/03/05 06:40:09;;;;;;;66.27;31.83;;;;;;;3.61;73.26;95296.91;1757434;81;21156;-73
2021/03/05 06:42:56;;;;;;;50.10;21.20;;;;;;;3.67;73.17;95295.60;1779375;80;21263;-70
2021/03/05 06:45:36;;;;;;;53.40;24.00;;;;;;;3.77;72.78;95299.12;1779494;80;21164;-77
2021/03/05 06:48:09;;;;;;;49.27;21.30;;;;;;;3.86;72.73;95299.16;1779413;81;21149;-78
2021/03/05 06:50:42;;;;;;;45.45;21.73;;;;;;;3.94;72.54;95300.47;1779459;81;21536;-71
2021/03/05 06:53:23;;;;;;;41.00;22.13;;;;;;;4.02;72.52;95301.36;1779580;81;21117;-70
2021/03/05 06:55:55;;;;;;;50.98;24.67;;;;;;;4.11;72.23;95295.72;1779631;81;21725;-74
2021/03/05 06:58:24;;;;;;;46.20;20.63;;;;;;;4.20;72.06;95294.84;1779732;80;21132;-76
2021/03/05 07:01:03;;;;;;;28.57;12.53;;;;;;;4.29;71.75;95293.56;1779307;81;21572;-77
2021/03/05 07:03:32;;;;;;;44.87;20.60;;;;;;;4.46;71.64;95293.98;1779345;81;21259;-71
2021/03/05 07:06:00;;;;;;;38.50;12.57;;;;;;;4.65;72.19;95292.25;1779416;81;21633;-73
2021/03/05 07:08:43;;;;;;;21.47;9.27;;;;;;;4.87;71.76;95289.19;1779317;81;21129;-73
2021/03/05 07:11:35;;;;;;;65.70;29.10;;;;;;;5.06;71.35;95293.48;1779335;80;21137;-77
2021/03/05 07:14:05;;;;;;;76.67;32.77;;;;;;;5.29;71.52;95289.95;1779323;80;21160;-74
2021/03/05 07:16:47;;;;;;;41.58;18.42;;;;;;;5.45;71.16;95284.24;1779683;81;21267;-75
2021/03/05 07:19:19;;;;;;;31.40;13.53;;;;;;;5.58;70.84;95286.80;1779418;81;21571;-76
2021/03/05 07:21:50;;;;;;;58.97;24.23;;;;;;;5.71;70.75;95288.91;1757669;81;21141;-77
2021/03/05 07:24:21;;;;;;;43.23;16.70;;;;;;;5.83;70.36;95281.00;1779604;81;21121;-69
2021/03/05 07:26:53;;;;;;;22.10;7.63;;;;;;;6.00;70.46;95282.26;1779335;81;21267;-76
2021/03/05 07:29:28;;;;;;;15.30;5.37;;;;;;;6.23;67.55;95278.62;1779534;80;21287;-77
2021/03/05 07:32:10;;;;;;;27.77;11.97;;;;;;;6.50;64.22;95279.73;1778907;80;21255;-71
2021/03/05 07:34:48;;;;;;;19.60;6.83;;;;;;;6.66;66.40;95276.53;1779216;80;21267;-75
2021/03/05 07:37:19;;;;;;;19.67;6.43;;;;;;;6.85;65.06;95274.59;1779613;81;21113;-70
2021/03/05 07:39:50;;;;;;;10.57;4.20;;;;;;;7.10;60.47;95273.05;1779268;81;21319;-74
2021/03/05 07:42:20;;;;;;;25.70;11.20;;;;;;;7.28;58.20;95268.95;1779801;81;21121;-79
2021/03/05 07:44:51;;;;;;;22.60;8.60;;;;;;;7.46;59.50;95269.59;1779341;79;21136;-68
2021/03/05 07:47:20;;;;;;;20.17;7.77;;;;;;;7.56;56.86;95266.00;1779578;81;21144;-75
2021/03/05 07:49:49;;;;;;;14.03;7.50;;;;;;;7.68;56.77;95257.08;1779168;81;21709;-76
2021/03/05 07:52:19;;;;;;;17.17;8.33;;;;;;;7.76;54.46;95252.17;1779367;81;21717;-78
2021/03/05 07:54:49;;;;;;;20.47;8.37;;;;;;;7.85;53.33;95244.59;1779285;81;21271;-84
2021/03/05 07:57:25;;;;;;;16.60;6.67;;;;;;;7.98;53.47;95247.92;1779212;81;21298;-76
2021/03/05 07:59:55;;;;;;;24.30;9.73;;;;;;;8.16;49.84;95254.67;1779474;81;21428;-71
2021/03/05 08:02:23;;;;;;;21.27;8.80;;;;;;;8.23;50.50;95247.13;1779708;81;21121;-71
2021/03/05 08:04:57;;;;;;;16.83;7.37;;;;;;;8.38;48.28;95239.45;1779075;81;21275;-72
2021/03/05 08:07:31;;;;;;;23.77;8.90;;;;;;;8.47;47.63;95239.77;1777117;80;21133;-71
2021/03/05 08:10:00;;;;;;;23.10;10.47;;;;;;;8.53;47.48;95230.03;1779300;81;21295;-74
2021/03/05 08:12:38;;;;;;;21.97;10.67;;;;;;;8.62;46.23;95236.46;1779669;80;21140;-72
2021/03/05 08:15:21;;;;;;;21.60;9.48;;;;;;;8.66;44.84;95228.92;1779726;81;21115;-81
2021/03/05 08:17:51;;;;;;;19.47;6.77;;;;;;;8.73;47.28;95228.83;1779360;81;21115;-73
2021/03/05 08:20:29;;;;;;;18.80;8.93;;;;;;;8.78;43.85;95223.91;1779110;81;21116;-71
2021/03/05 08:23:05;;;;;;;18.60;8.58;;;;;;;8.87;45.01;95212.37;1779625;81;21256;-77
2021/03/05 08:25:52;;;;;;;17.80;7.57;;;;;;;8.98;45.15;95214.80;1779177;81;21267;-80
2021/03/05 08:28:39;;;;;;;16.47;6.40;;;;;;;9.07;43.54;95210.23;1779395;81;21121;-78
2021/03/05 08:31:34;;;;;;;17.87;7.97;;;;;;;9.13;44.47;95205.75;1779263;81;21268;-77
2021/03/05 08:34:30;;;;;;;20.77;9.87;;;;;;;9.23;42.06;95198.95;1780603;79;23063;-79
2021/03/05 08:36:58;;;;;;;17.10;6.57;;;;;;;9.20;42.40;95195.06;1753989;82;21560;-77
2021/03/05 08:39:29;;;;;;;21.00;8.70;;;;;;;9.28;42.01;95200.18;1754110;82;21168;-74
2021/03/05 08:42:32;;;;;;;18.23;10.63;;;;;;;9.37;42.03;95180.23;1753986;81;21145;-70
2021/03/05 08:45:26;;;;;;;13.17;6.30;;;;;;;9.51;41.62;95180.82;1754269;82;21145;-75
2021/03/05 08:48:01;;;;;;;16.03;7.57;;;;;;;9.83;40.29;95181.04;1740315;82;21125;-79
2021/03/05 08:50:33;;;;;;;21.70;8.23;;;;;;;10.01;40.86;95171.39;1753970;81;21137;-75
2021/03/05 08:53:08;;;;;;;19.62;9.80;;;;;;;10.06;38.39;95173.47;1754256;82;21161;-79
2021/03/05 08:55:40;;;;;;;24.07;9.67;;;;;;;10.07;39.55;95175.64;1754003;82;21118;-76
2021/03/05 08:58:15;;;;;;;20.77;8.88;;;;;;;10.18;38.86;95169.69;1754190;82;21118;-69
2021/03/05 09:00:43;;;;;;;18.17;8.70;;;;;;;10.21;38.65;95174.88;1753888;81;21090;-75
2021/03/05 09:03:16;;;;;;;19.50;11.63;;;;;;;10.23;39.17;95174.82;1753811;81;21141;-71
2021/03/05 09:05:48;;;;;;;17.43;9.17;;;;;;;10.27;38.41;95176.03;1754155;81;21133;-75
2021/03/05 09:08:22;;;;;;;21.87;12.40;;;;;;;10.37;39.16;95171.44;1753906;82;21129;-73
2021/03/05 09:10:55;;;;;;;28.57;14.23;;;;;;;10.46;38.26;95177.82;1724938;82;21259;-72
2021/03/05 09:13:31;;;;;;;;;;;;;;;10.46;38.12;95177.82;1756271;81;21181;-72
2021/03/05 09:16:02;;;;;;;17.60;10.50;;;;;;;10.37;37.17;95176.25;1754009;81;20130;-72
2021/03/05 09:18:34;;;;;;;20.80;11.77;;;;;;;10.30;36.68;95171.17;1753965;82;21890;-78
2021/03/05 09:21:10;;;;;;;21.77;10.37;;;;;;;10.28;36.94;95170.34;1754129;82;21153;-76
2021/03/05 09:23:42;;;;;;;21.03;10.40;;;;;;;10.30;37.50;95173.34;1754245;81;21134;-79
2021/03/05 09:26:16;;;;;;;19.10;10.60;;;;;;;10.40;38.74;95166.08;1753911;82;21157;-74
2021/03/05 09:28:49;;;;;;;19.57;9.37;;;;;;;10.49;37.57;95179.05;1753930;81;21153;-83
2021/03/05 09:31:23;;;;;;;18.43;10.10;;;;;;;10.49;37.06;95179.52;1754044;81;21154;-81
2021/03/05 09:33:53;;;;;;;21.37;10.57;;;;;;;10.52;38.62;95174.16;1754464;81;21570;-72
2021/03/05 09:36:24;;;;;;;16.63;8.67;;;;;;;10.51;37.97;95173.75;1754570;82;21279;-79
2021/03/05 09:39:04;;;;;;;10.67;5.90;;;;;;;10.39;36.19;95174.91;1755123;82;21148;-73
2021/03/05 09:41:31;;;;;;;22.20;11.70;;;;;;;10.34;36.92;95184.71;1753917;82;21256;-76
2021/03/05 09:44:04;;;;;;;23.63;12.10;;;;;;;10.26;36.99;95187.50;1754516;82;21275;-67
2021/03/05 09:46:34;;;;;;;;;;;;;;;10.23;37.85;95182.73;1757079;82;21140;-75
2021/03/05 09:49:24;;;;;;;20.03;10.60;;;;;;;10.28;36.48;95187.48;1754415;82;20141;-75
2021/03/05 09:51:53;;;;;;;13.27;5.80;;;;;;;10.31;36.96;95195.34;1754177;82;21137;-75
2021/03/05 09:54:41;;;;;;;15.27;8.70;;;;;;;10.32;36.03;95191.33;1754207;82;21614;-74
2021/03/05 09:57:12;;;;;;;13.00;7.37;;;;;;;10.34;36.14;95192.16;1754059;81;21126;-80
2021/03/05 09:59:51;;;;;;;16.10;9.03;;;;;;;10.40;36.12;95189.81;1754376;81;21102;-75
2021/03/05 10:02:20;;;;;;;34.37;14.70;;;;;;;10.45;36.39;95181.80;1754177;81;21540;-78
2021/03/05 10:04:52;;;;;;;;;;;;;;;10.50;37.77;95195.28;1756796;82;21137;-72
2021/03/05 10:07:21;;;;;;;14.30;7.67;;;;;;;10.53;35.41;95193.91;1754336;82;20157;-72
2021/03/05 10:10:08;;;;;;;13.80;7.70;;;;;;;10.56;35.27;95208.80;1754101;82;21094;-73
2021/03/05 10:12:36;;;;;;;;;;;;;;;10.61;35.96;95196.36;1756957;82;21571;-72
2021/03/05 10:15:07;;;;;;;26.27;11.23;;;;;;;10.67;36.86;95199.29;1754346;82;20419;-71
2021/03/05 10:17:39;;;;;;;12.37;6.67;;;;;;;10.69;35.97;95196.16;1754205;82;21117;-71
2021/03/05 10:20:10;;;;;;;12.60;7.47;;;;;;;10.75;35.35;95200.81;1754396;82;21150;-71
2021/03/05 10:22:38;;;;;;;12.43;7.53;;;;;;;10.78;35.10;95206.00;1754048;81;21560;-71
2021/03/05 10:25:09;;;;;;;13.20;6.87;;;;;;;10.73;35.08;95207.89;1754069;81;21128;-71
2021/03/05 10:27:42;;;;;;;10.20;5.50;;;;;;;10.74;35.31;95200.41;1754380;81;21121;-71
2021/03/05 10:30:11;;;;;;;16.65;8.13;;;;;;;10.82;35.44;95190.52;1754346;81;21571;-69
2021/03/05 10:32:47;;;;;;;11.53;6.27;;;;;;;11.01;36.00;95195.30;1754029;81;21141;-70
2021/03/05 10:35:16;;;;;;;11.60;6.80;;;;;;;11.11;35.47;95191.50;1754458;82;21129;-71
2021/03/05 10:37:45;;;;;;;14.57;7.90;;;;;;;11.11;35.43;95194.60;1753925;81;21140;-71
2021/03/05 10:40:15;;;;;;;12.50;7.13;;;;;;;11.35;35.94;95194.40;1754372;82;21133;-71
2021/03/05 10:42:44;;;;;;;12.63;6.67;;;;;;;11.55;36.60;95190.73;1754877;81;21264;-71
2021/03/05 10:45:13;;;;;;;15.23;7.90;;;;;;;11.63;36.08;95184.77;1754112;82;21177;-71
2021/03/05 10:47:43;;;;;;;16.77;9.90;;;;;;;11.72;36.37;95186.28;1754440;82;21150;-71
2021/03/05 10:50:15;;;;;;;12.37;6.83;;;;;;;11.86;35.85;95197.33;1754435;82;21125;-71
2021/03/05 10:52:43;;;;;;;9.80;5.27;;;;;;;11.68;34.92;95200.03;1754098;82;21125;-71
2021/03/05 10:55:12;;;;;;;8.13;5.23;;;;;;;11.55;35.04;95201.30;1754104;82;21583;-71
2021/03/05 10:57:45;;;;;;;9.63;5.60;;;;;;;11.43;35.41;95196.36;1754359;81;21590;-70
2021/03/05 11:00:15;;;;;;;12.27;6.63;;;;;;;11.18;35.50;95204.95;1754280;81;21134;-71
2021/03/05 11:02:45;;;;;;;10.27;6.57;;;;;;;11.18;36.07;95202.31;1754359;81;21094;-71
2021/03/05 11:05:14;;;;;;;6.20;4.07;;;;;;;11.17;35.67;95203.70;1754529;81;21282;-71
2021/03/05 11:07:45;;;;;;;8.60;5.37;;;;;;;11.22;35.81;95211.90;1753976;81;21098;-71
2021/03/05 11:10:14;;;;;;;12.70;7.07;;;;;;;11.08;35.93;95200.83;1754216;81;21145;-71
2021/03/05 11:12:43;;;;;;;11.83;7.60;;;;;;;11.08;37.19;95200.83;1754015;81;21137;-71
2021/03/05 11:15:12;;;;;;;13.07;7.10;;;;;;;11.00;36.14;95209.42;1754312;81;21626;-71
2021/03/05 11:17:40;;;;;;;13.97;8.10;;;;;;;11.14;36.63;95190.59;1754320;81;21567;-71
2021/03/05 11:20:12;;;;;;;13.77;8.87;;;;;;;11.46;36.85;95191.87;1754013;81;21102;-70
2021/03/05 11:22:42;;;;;;;8.93;4.97;;;;;;;11.60;35.81;95188.82;1753962;81;21599;-71
2021/03/05 11:25:11;;;;;;;12.40;8.80;;;;;;;11.79;35.82;95181.23;1754060;82;21153;-71
2021/03/05 11:27:41;;;;;;;18.23;11.13;;;;;;;11.80;35.13;95182.95;1754232;81;21106;-70
2021/03/05 11:30:11;;;;;;;11.13;7.20;;;;;;;12.05;36.31;95173.85;1754058;82;21631;-70
2021/03/05 11:32:41;;;;;;;15.43;10.30;;;;;;;12.30;35.21;95173.09;1753345;81;21153;-70
2021/03/05 11:35:11;;;;;;;10.87;7.50;;;;;;;12.12;35.02;95166.14;1740102;81;21161;-71
2021/03/05 11:37:40;;;;;;;14.20;9.10;;;;;;;12.31;34.20;95180.95;1740269;82;21292;-71
2021/03/05 11:40:12;;;;;;;28.60;16.73;;;;;;;12.62;34.09;95165.86;1740313;82;21150;-71
2021/03/05 11:42:41;;;;;;;17.80;12.03;;;;;;;12.73;34.61;95155.33;1740245;82;21249;-71
2021/03/05 11:45:11;;;;;;;39.77;27.93;;;;;;;12.72;33.34;95168.59;1740300;82;21683;-70
2021/03/05 11:47:39;;;;;;;14.37;10.10;;;;;;;12.86;33.23;95170.80;1740270;82;21308;-71
2021/03/05 11:50:10;;;;;;;15.67;10.13;;;;;;;13.07;33.07;95167.39;1740129;82;21156;-71
2021/03/05 11:52:39;;;;;;;18.90;12.80;;;;;;;13.26;33.06;95170.73;1740158;82;21143;-71